Terminal Aerodrome Forecast
Issued by NWS

Home | Current Version | Previous Version | Text Only | Print | Product List | Glossary On
Versions: 1 2 3 4 5 6 7 8 9 10 11 12 13 14 15 16 17
000
FTUS46 KMTR 231120
TAFSTS
TAF
KSTS 231120Z 2312/2412 VRB03KT P6SM SKC
     FM232000 19008KT P6SM SCT120 BKN150
     FM240000 21010KT P6SM VCSH SCT030 BKN080 OVC120
     FM240400 16005KT P6SM -RA SCT025 OVC050
     FM240800 15005KT 4SM RA SCT025 OVC050=

USA.gov is the U.S. government's official web portal to all federal, state and local government web resources and services.